Time;durP1;ratioP1;P1;durP2;ratioP2;P2;SDS_P1;SDS_P2;PMS_P1;PMS_P2;Temp;Humidity;BMP_temperature;BMP_pressure;BME280_temperature;BME280_humidity;BME280_pressure;Samples;Min_cycle;Max_cycle;Signal;HPM_P1;HPM_P2
2021/12/04 00:00:38;;;;;;;3.50;2.03;;;4.00;99.90;;;4.45;100.00;99057.00;5040524;28;20455;-88
2021/12/04 00:03:04;;;;;;;2.30;1.70;;;4.00;99.90;;;4.47;100.00;99054.66;5040017;28;20030;-87
2021/12/04 00:05:30;;;;;;;3.80;2.35;;;4.10;99.90;;;4.42;100.00;99044.69;5057961;28;20618;-86
2021/12/04 00:07:57;;;;;;;2.70;2.28;;;4.10;99.90;;;4.38;100.00;99041.03;5040520;28;20025;-88
2021/12/04 00:10:28;;;;;;;2.67;2.10;;;4.10;99.90;;;4.44;100.00;99039.59;5038846;28;20041;-87
2021/12/04 00:12:55;;;;;;;3.95;1.90;;;4.10;99.90;;;4.38;100.00;99034.69;5055949;28;20116;-88
2021/12/04 00:15:21;;;;;;;3.78;2.50;;;4.10;99.90;;;4.42;100.00;99030.88;5055338;28;20037;-88
2021/12/04 00:17:47;;;;;;;2.85;1.95;;;4.10;99.90;;;4.42;100.00;99030.88;5039001;28;20052;-87
2021/12/04 00:20:13;;;;;;;2.90;1.92;;;4.10;99.90;;;4.44;100.00;99028.53;5039205;28;20022;-88
2021/12/04 00:22:41;;;;;;;2.90;2.00;;;4.10;99.90;;;4.47;100.00;99035.31;5054784;28;20481;-88
2021/12/04 00:25:09;;;;;;;2.17;1.90;;;4.10;99.90;;;4.51;100.00;99030.69;5057355;28;20116;-88
2021/12/04 00:27:36;;;;;;;2.83;2.08;;;4.10;99.90;;;4.41;100.00;99022.91;5057371;28;20025;-88
2021/12/04 00:30:04;;;;;;;1.90;1.70;;;4.10;99.90;;;4.44;100.00;99017.47;5058661;28;20025;-85
2021/12/04 00:32:33;;;;;;;2.90;2.25;;;4.10;99.90;;;4.50;100.00;99013.28;5057333;28;20037;-88
2021/12/04 00:35:11;;;;;;;3.53;2.17;;;4.10;99.90;;;4.39;100.00;99000.38;5057715;28;20116;-88
2021/12/04 00:51:24;;;;;;;1.83;1.55;;;4.10;99.90;;;4.45;100.00;98991.44;5057620;28;20028;-86
2021/12/04 00:53:54;;;;;;;3.83;1.98;;;4.10;99.90;;;4.53;100.00;98997.94;5059214;28;20443;-88
2021/12/04 00:56:24;;;;;;;3.42;1.90;;;4.10;99.90;;;4.57;100.00;98993.31;5057485;28;20040;-86
2021/12/04 00:58:50;;;;;;;2.55;1.67;;;4.10;99.90;;;4.62;100.00;98999.34;5059315;28;20096;-88
2021/12/04 01:01:19;;;;;;;3.40;1.98;;;4.10;99.90;;;4.57;100.00;98994.13;5058906;28;20025;-88
2021/12/04 01:03:46;;;;;;;2.33;1.90;;;4.10;99.90;;;4.61;100.00;98996.97;5058041;28;20029;-88
2021/12/04 01:06:13;;;;;;;3.42;1.77;;;4.20;99.90;;;4.61;100.00;98989.47;5058336;28;20025;-88
2021/12/04 01:08:40;;;;;;;2.13;1.90;;;4.20;99.90;;;4.63;100.00;98989.91;5056806;28;20124;-86
2021/12/04 01:11:06;;;;;;;1.77;1.65;;;4.20;99.90;;;4.55;100.00;98988.16;5057536;28;20025;-86
2021/12/04 01:13:34;;;;;;;1.83;1.70;;;4.20;99.90;;;4.55;100.00;98981.81;5072592;28;20037;-87
2021/12/04 01:16:00;;;;;;;5.03;2.10;;;4.20;99.90;;;4.62;100.00;98974.47;5058129;28;20025;-89
2021/12/04 01:18:26;;;;;;;2.30;2.00;;;4.20;99.90;;;4.61;100.00;98972.09;5057639;28;20028;-87
2021/12/04 01:20:52;;;;;;;2.33;1.60;;;4.20;99.90;;;4.61;100.00;98963.78;5053803;28;20392;-88
2021/12/04 01:23:19;;;;;;;2.53;2.10;;;4.20;99.90;;;4.66;100.00;98964.31;5037646;28;20033;-84
2021/12/04 01:25:45;;;;;;;1.80;1.67;;;4.20;99.90;;;4.70;100.00;98967.97;5036173;28;20025;-86
2021/12/04 01:28:12;;;;;;;2.03;1.77;;;4.20;99.90;;;4.61;100.00;98963.78;5036381;28;20121;-87
2021/12/04 01:30:38;;;;;;;3.28;2.10;;;4.20;99.90;;;4.66;100.00;98971.78;5036021;28;20057;-84
2021/12/04 01:33:04;;;;;;;2.30;2.10;;;4.30;99.90;;;4.59;100.00;98969.66;5052178;28;20036;-86
2021/12/04 01:35:30;;;;;;;3.22;2.35;;;4.20;99.90;;;4.61;100.00;98958.25;5035639;28;20052;-87
2021/12/04 01:37:56;;;;;;;3.30;2.10;;;4.20;99.90;;;4.67;100.00;98951.28;5035076;28;20033;-87
2021/12/04 01:40:22;;;;;;;3.70;1.90;;;4.20;99.90;;;4.68;100.00;98950.94;5036037;28;20029;-88
2021/12/04 01:42:49;;;;;;;2.80;2.60;;;4.20;99.90;;;4.55;100.00;98951.41;5036594;28;20037;-86
2021/12/04 01:45:19;;;;;;;4.57;2.60;;;4.20;99.90;;;4.48;100.00;98952.03;5035674;28;20025;-86
2021/12/04 01:47:45;;;;;;;3.65;2.72;;;4.20;99.90;;;4.55;100.00;98951.41;5035215;28;20025;-86
2021/12/04 01:50:13;;;;;;;3.65;2.72;;;4.20;99.90;;;4.56;100.00;98948.25;5037145;28;20473;-87
2021/12/04 01:52:39;;;;;;;3.63;2.42;;;4.20;99.90;;;4.59;100.00;98938.47;5034913;28;20083;-86
2021/12/04 01:55:08;;;;;;;3.40;2.50;;;4.20;99.90;;;4.63;100.00;98936.56;5035091;28;20026;-85
2021/12/04 01:57:34;;;;;;;2.72;2.35;;;4.20;99.90;;;4.71;100.00;98947.44;5036438;28;20029;-84
2021/12/04 02:00:02;;;;;;;3.28;2.75;;;4.20;99.90;;;4.64;100.00;98943.72;5036550;28;20049;-85
2021/12/04 02:02:27;;;;;;;2.78;2.40;;;4.20;99.90;;;4.61;100.00;98944.44;5036339;28;20029;-85
2021/12/04 02:04:53;;;;;;;4.32;2.60;;;4.20;99.90;;;4.64;100.00;98940.94;5037337;28;20038;-85
2021/12/04 02:07:22;;;;;;;3.15;2.33;;;4.20;99.90;;;4.60;100.00;98938.09;5044891;28;20071;-84
2021/12/04 02:09:48;;;;;;;2.53;2.10;;;4.20;99.90;;;4.65;100.00;98937.03;5051096;28;20064;-87
2021/12/04 02:12:14;;;;;;;3.35;2.10;;;4.20;99.90;;;4.65;100.00;98937.84;5051916;28;20363;-87
2021/12/04 02:14:42;;;;;;;4.90;2.60;;;4.20;99.90;;;4.68;100.00;98933.53;5036747;28;20053;-86
2021/12/04 02:17:09;;;;;;;2.97;2.10;;;4.20;99.90;;;4.68;100.00;98934.34;5036877;28;20031;-85
2021/12/04 02:19:35;;;;;;;3.30;2.20;;;4.20;99.90;;;4.65;100.00;98926.78;5036937;28;20471;-86
2021/12/04 02:22:02;;;;;;;3.03;2.42;;;4.20;99.90;;;4.60;100.00;98924.28;5063420;28;20029;-87
2021/12/04 02:24:28;;;;;;;3.17;2.35;;;4.20;99.90;;;4.68;100.00;98928.81;5071908;28;20139;-85
2021/12/04 02:26:55;;;;;;;5.10;2.53;;;4.20;99.90;;;4.71;100.00;98925.34;5054370;28;20028;-86
2021/12/04 02:29:20;;;;;;;2.90;2.20;;;4.20;99.90;;;4.72;100.00;98921.38;5070869;28;20029;-87
2021/12/04 02:31:56;;;;;;;2.35;2.05;;;4.20;99.90;;;4.66;100.00;98916.50;5071571;28;20446;-85
2021/12/04 02:34:29;;;;;;;6.90;2.45;;;4.30;99.90;;;4.70;100.00;98909.88;5054052;28;20040;-87
2021/12/04 02:36:58;;;;;;;2.65;2.35;;;4.30;99.90;;;4.80;100.00;98914.06;5054274;28;20033;-87
2021/12/04 02:39:35;;;;;;;2.05;1.83;;;4.30;99.90;;;4.77;100.00;98907.28;5054134;28;20029;-86
2021/12/04 02:42:06;;;;;;;3.58;2.22;;;4.30;99.90;;;4.76;100.00;98902.91;5070641;28;20036;-86
2021/12/04 02:44:41;;;;;;;2.33;2.05;;;4.30;99.90;;;4.71;100.00;98896.88;5054212;28;20025;-85
2021/12/04 02:47:08;;;;;;;2.70;2.00;;;4.30;99.90;;;4.66;100.00;98899.91;5071220;28;20525;-85
2021/12/04 02:49:34;;;;;;;3.08;1.90;;;4.30;99.90;;;4.78;100.00;98899.78;5054256;28;20045;-88
2021/12/04 02:52:07;;;;;;;3.00;2.35;;;4.30;99.90;;;4.79;100.00;98890.31;5055595;28;20106;-86
2021/12/04 02:54:35;;;;;;;2.63;2.00;;;4.30;99.90;;;4.72;100.00;98890.16;5051590;28;20427;-85
2021/12/04 02:57:06;;;;;;;2.55;2.30;;;4.30;99.90;;;4.69;100.00;98888.91;5071519;28;20036;-86
2021/12/04 02:59:33;;;;;;;2.50;2.30;;;4.30;99.90;;;4.72;100.00;98882.66;5072542;28;20024;-86
2021/12/04 03:02:00;;;;;;;3.50;2.33;;;4.30;99.90;;;4.73;100.00;98884.28;5056095;28;20025;-86
2021/12/04 03:04:27;;;;;;;4.47;2.60;;;4.30;99.90;;;4.69;100.00;98879.81;5054701;28;20398;-87
2021/12/04 03:06:54;;;;;;;3.33;2.92;;;4.30;99.90;;;4.67;100.00;98863.59;5064135;23;20451;-82
2021/12/04 03:09:20;;;;;;;3.65;3.00;;;4.30;99.90;;;4.70;100.00;98856.53;5055188;28;20139;-82
2021/12/04 03:11:47;;;;;;;3.30;2.50;;;4.30;99.90;;;4.73;100.00;98859.38;5056575;28;20442;-79
2021/12/04 03:14:17;;;;;;;3.40;2.60;;;4.30;99.90;;;4.63;100.00;98864.69;5055591;28;20059;-81
2021/12/04 03:16:43;;;;;;;3.83;2.45;;;4.30;99.90;;;4.66;100.00;98853.69;5038976;28;20040;-81
2021/12/04 03:19:10;;;;;;;4.43;2.92;;;4.30;99.90;;;4.64;100.00;98839.44;5057871;28;20036;-82
2021/12/04 03:21:39;;;;;;;3.22;2.42;;;4.30;99.90;;;4.72;100.00;98832.88;5063358;28;20092;-83
2021/12/04 03:24:08;;;;;;;4.88;3.17;;;4.30;99.90;;;4.73;100.00;98831.72;5064560;28;20035;-81
2021/12/04 03:26:37;;;;;;;4.13;3.33;;;4.30;99.90;;;4.75;100.00;98829.41;5065094;28;20058;-83
2021/12/04 03:29:06;;;;;;;4.80;2.72;;;4.30;99.90;;;4.63;100.00;98821.25;5045899;28;20029;-80
2021/12/04 03:42:20;;;;;;;3.58;3.03;;;4.30;99.90;;;4.79;100.00;98804.59;5063057;28;20074;-80
2021/12/04 03:44:47;;;;;;;4.47;3.00;;;4.30;99.90;;;4.77;100.00;98802.19;5045038;28;20025;-82
2021/12/04 03:47:13;;;;;;;4.43;2.90;;;4.30;99.90;;;4.71;100.00;98802.84;5061488;28;20021;-83
2021/12/04 03:49:39;;;;;;;4.13;3.20;;;4.30;99.90;;;4.82;100.00;98797.53;5059851;28;20058;-82
2021/12/04 03:52:09;;;;;;;4.72;3.40;;;4.30;99.90;;;4.81;100.00;98793.16;5060184;28;20377;-82
2021/12/04 03:54:36;;;;;;;4.75;3.33;;;4.30;99.90;;;4.79;100.00;98791.56;5059513;28;20576;-82
2021/12/04 03:57:04;;;;;;;4.13;3.05;;;4.30;99.90;;;4.84;100.00;98795.19;5063026;28;20106;-82
2021/12/04 03:59:47;;;;;;;4.05;2.85;;;4.30;99.90;;;4.85;100.00;98788.50;5046734;28;20025;-81
2021/12/04 04:02:17;;;;;;;4.93;2.97;;;4.30;99.90;;;4.84;100.00;98781.38;5073680;28;20040;-82
2021/12/04 04:04:44;;;;;;;3.47;2.80;;;4.30;99.90;;;4.82;100.00;98780.94;5046543;28;20036;-82
2021/12/04 04:07:10;;;;;;;4.55;3.80;;;4.30;99.90;;;4.85;100.00;98789.28;5064486;28;20048;-82
2021/12/04 04:09:37;;;;;;;3.80;2.75;;;4.30;99.90;;;4.92;100.00;98794.97;5063800;28;20025;-81
2021/12/04 04:12:07;;;;;;;4.03;3.00;;;4.30;99.90;;;4.97;100.00;98800.22;5063853;28;20392;-82
2021/12/04 04:14:36;;;;;;;3.60;2.65;;;4.30;99.90;;;4.95;100.00;98794.22;5044580;28;20119;-82
2021/12/04 04:17:03;;;;;;;3.92;3.08;;;4.30;99.90;;;4.92;100.00;98791.41;5046516;28;20101;-82
2021/12/04 04:19:29;;;;;;;4.32;3.20;;;4.40;99.90;;;4.95;100.00;98785.13;5063629;28;20025;-82
2021/12/04 04:21:58;;;;;;;4.35;2.80;;;4.30;99.90;;;4.99;100.00;98794.31;5053265;28;20037;-82
2021/12/04 04:24:29;;;;;;;3.90;2.63;;;4.30;99.90;;;4.99;100.00;98784.03;5025637;28;20029;-79
2021/12/04 04:26:59;;;;;;;4.88;2.80;;;4.30;99.90;;;5.01;100.00;98781.69;5024529;28;20111;-80
2021/12/04 04:29:26;;;;;;;4.80;3.40;;;4.40;99.90;;;4.98;100.00;98776.91;5024631;28;20021;-83
2021/12/04 04:31:55;;;;;;;3.55;2.88;;;4.40;99.90;;;4.94;100.00;98776.06;5021023;28;20030;-83
2021/12/04 04:34:34;;;;;;;2.95;2.55;;;4.40;99.90;;;4.96;100.00;98776.47;5022416;28;20033;-80
2021/12/04 04:37:17;;;;;;;6.13;3.22;;;4.40;99.90;;;5.01;100.00;98775.41;5023286;28;20421;-83
2021/12/04 05:01:29;;;;;;;4.47;3.05;;;4.40;99.90;;;4.98;100.00;98745.66;5042475;28;20037;-83
2021/12/04 05:14:39;;;;;;;5.97;3.00;;;4.40;99.90;;;4.91;100.00;98738.06;5038638;28;20034;-81
2021/12/04 05:17:13;;;;;;;5.30;3.22;;;4.40;99.90;;;4.92;100.00;98736.06;5020897;28;20060;-83
2021/12/04 05:22:09;;;;;;;3.22;2.75;;;4.40;99.90;;;4.96;100.00;98734.19;5051620;28;20033;-81
2021/12/04 05:24:40;;;;;;;3.95;2.65;;;4.40;99.90;;;4.96;100.00;98737.75;5040715;28;20108;-81
2021/12/04 05:27:12;;;;;;;4.55;3.13;;;4.40;99.90;;;4.91;100.00;98737.25;5059595;28;20068;-81
2021/12/04 05:29:39;;;;;;;4.18;3.20;;;4.40;99.90;;;4.93;100.00;98746.78;5041318;28;20044;-83
2021/12/04 05:32:07;;;;;;;3.33;2.75;;;4.50;99.90;;;4.87;100.00;98736.38;5058542;28;20056;-80
2021/12/04 05:34:35;;;;;;;3.47;2.50;;;4.50;99.90;;;4.86;100.00;98729.25;5040002;28;20029;-83
2021/12/04 05:37:03;;;;;;;5.18;3.22;;;4.40;99.90;;;4.98;100.00;98734.59;5057806;28;20095;-81
2021/12/04 05:39:29;;;;;;;4.35;2.85;;;4.40;99.90;;;4.98;100.00;98737.38;5058676;28;20108;-81
2021/12/04 05:41:55;;;;;;;3.67;3.00;;;4.50;99.90;;;4.94;100.00;98733.75;5057396;28;20037;-82
2021/12/04 05:44:30;;;;;;;3.63;2.85;;;4.50;99.90;;;4.92;100.00;98734.13;5057497;28;20484;-81
2021/12/04 05:47:04;;;;;;;3.88;3.03;;;4.50;99.90;;;4.97;100.00;98731.06;5056844;28;20049;-81
2021/12/04 05:52:21;;;;;;;5.13;3.70;;;4.50;99.90;;;4.96;100.00;98723.91;5057771;28;20392;-80
2021/12/04 05:55:11;;;;;;;3.90;2.70;;;4.40;99.90;;;4.98;100.00;98723.53;5058141;28;20561;-80
2021/12/04 05:57:34;;;;;;;4.03;2.83;;;4.40;99.90;;;4.97;100.00;98733.84;5057782;28;20417;-81
2021/12/04 06:00:00;;;;;;;3.95;2.72;;;4.50;99.90;;;4.95;100.00;98724.28;5058807;28;20017;-81
2021/12/04 06:02:26;;;;;;;3.22;2.55;;;4.50;99.90;;;4.94;100.00;98729.03;5057956;28;20029;-80
2021/12/04 06:04:52;;;;;;;3.80;2.90;;;4.40;99.90;;;4.87;100.00;98717.84;5056583;28;20032;-80
2021/12/04 06:07:18;;;;;;;4.40;2.63;;;4.40;99.90;;;4.94;100.00;98731.00;5040134;28;20377;-81
2021/12/04 06:09:43;;;;;;;3.17;2.58;;;4.40;99.90;;;4.90;100.00;98724.59;5056845;28;20029;-82
2021/12/04 06:12:12;;;;;;;5.65;3.10;;;4.50;99.90;;;4.90;100.00;98711.56;5057571;28;20025;-82
2021/12/04 06:14:45;;;;;;;3.55;2.30;;;4.50;99.90;;;4.95;100.00;98722.31;5057988;28;20029;-83
2021/12/04 06:17:12;;;;;;;4.43;2.60;;;4.50;99.90;;;4.91;100.00;98721.47;5058293;28;20481;-82
2021/12/04 06:22:41;;;;;;;3.97;2.67;;;4.50;99.90;;;4.94;100.00;98726.28;5058678;28;20055;-82
2021/12/04 06:25:20;;;;;;;3.40;2.65;;;4.40;99.90;;;4.91;100.00;98715.13;5057868;28;20025;-82
2021/12/04 06:27:46;;;;;;;3.47;2.65;;;4.50;99.90;;;4.84;100.00;98723.28;5039861;28;20033;-81
2021/12/04 06:30:17;;;;;;;3.60;2.65;;;4.40;99.90;;;4.84;100.00;98715.00;5040050;28;20721;-81
2021/12/04 06:32:46;;;;;;;4.45;3.05;;;4.40;99.90;;;4.84;100.00;98717.75;5057790;28;20074;-83
2021/12/04 06:35:15;;;;;;;3.45;2.60;;;4.40;99.90;;;4.87;100.00;98704.00;5056895;28;20041;-81
2021/12/04 06:37:41;;;;;;;3.22;2.50;;;4.40;99.90;;;4.88;100.00;98708.34;5057931;28;20028;-82
2021/12/04 06:40:15;;;;;;;4.65;2.65;;;4.40;99.90;;;4.79;100.00;98708.59;5040472;28;20097;-81
2021/12/04 06:42:45;;;;;;;4.45;2.65;;;4.40;99.90;;;4.79;100.00;98705.03;5057291;28;20170;-81
2021/12/04 06:45:12;;;;;;;4.60;3.08;;;4.40;99.90;;;4.87;100.00;98705.97;5040580;28;20033;-82
2021/12/04 06:47:45;;;;;;;3.95;2.90;;;4.40;99.90;;;4.84;100.00;98701.97;5041166;28;20166;-81
2021/12/04 06:50:19;;;;;;;6.60;3.15;;;4.40;99.90;;;4.82;100.00;98700.75;5041506;28;20032;-81
2021/12/04 06:52:47;;;;;;;4.30;3.05;;;4.40;99.90;;;4.96;100.00;98695.47;5058996;28;20041;-81
2021/12/04 06:55:15;;;;;;;4.43;3.10;;;4.40;99.90;;;4.88;100.00;98702.81;5056800;28;20029;-81
2021/12/04 06:57:43;;;;;;;4.90;3.40;;;4.40;99.90;;;4.85;100.00;98709.09;5059127;28;20029;-83
2021/12/04 07:00:11;;;;;;;4.45;3.40;;;4.40;99.90;;;4.86;100.00;98710.69;5059613;28;20044;-83
2021/12/04 07:02:37;;;;;;;4.70;3.65;;;4.40;99.90;;;4.84;100.00;98718.56;5060208;28;20029;-82
2021/12/04 07:05:04;;;;;;;7.13;4.20;;;4.40;99.90;;;4.82;100.00;98720.09;5058325;28;20048;-83
2021/12/04 07:07:30;;;;;;;6.32;4.32;;;4.40;99.90;;;4.83;100.00;98721.69;5057992;28;20082;-83
2021/12/04 07:09:56;;;;;;;6.18;3.92;;;4.40;99.90;;;4.82;100.00;98709.03;5059213;28;20496;-82
2021/12/04 07:12:28;;;;;;;5.35;3.72;;;4.30;99.90;;;4.77;100.00;98715.66;5058606;28;20452;-81
2021/12/04 07:14:54;;;;;;;6.45;4.32;;;4.40;99.90;;;4.81;100.00;98701.91;5041066;28;20112;-82
2021/12/04 07:17:20;;;;;;;5.53;4.35;;;4.40;99.90;;;4.85;100.00;98700.78;5042213;28;20029;-82
2021/12/04 07:19:45;;;;;;;5.70;4.15;;;4.40;99.90;;;4.79;100.00;98697.53;5058849;28;20146;-81
2021/12/04 07:22:12;;;;;;;5.03;4.15;;;4.30;99.90;;;4.83;100.00;98702.31;5045766;28;20025;-81
2021/12/04 07:24:38;;;;;;;7.40;4.95;;;4.30;99.90;;;4.70;100.00;98699.72;5018112;28;20555;-82
2021/12/04 07:27:06;;;;;;;6.38;4.30;;;4.30;99.90;;;4.74;100.00;98697.03;5018354;28;20065;-81
2021/12/04 07:29:35;;;;;;;7.85;5.40;;;4.30;99.90;;;4.71;100.00;98692.25;5028209;28;20033;-82
2021/12/04 07:32:04;;;;;;;9.13;5.18;;;4.30;99.90;;;4.82;100.00;98695.22;5040932;28;20029;-81
2021/12/04 07:34:30;;;;;;;10.80;4.93;;;4.30;99.90;;;4.78;100.00;98695.91;5021250;28;20033;-81
2021/12/04 07:36:56;;;;;;;7.18;4.97;;;4.40;99.90;;;4.70;100.00;98707.22;5037600;28;20049;-82
2021/12/04 07:39:21;;;;;;;8.27;5.45;;;4.30;99.90;;;4.72;100.00;98693.81;5037734;28;20037;-82
2021/12/04 07:41:47;;;;;;;7.07;5.40;;;4.30;99.90;;;4.76;100.00;98701.03;5036898;28;20036;-80
2021/12/04 07:44:13;;;;;;;6.05;5.28;;;4.30;99.90;;;4.72;100.00;98697.38;5037719;28;20029;-83
2021/12/04 07:46:41;;;;;;;7.72;5.70;;;4.30;99.90;;;4.77;100.00;98699.06;5038500;28;20081;-83
2021/12/04 07:49:08;;;;;;;9.20;5.60;;;4.30;99.90;;;4.84;100.00;98695.63;5020478;28;20373;-82
2021/12/04 07:51:34;;;;;;;6.78;5.10;;;4.30;99.90;;;4.83;100.00;98692.06;5021011;28;20485;-83
2021/12/04 07:54:01;;;;;;;8.02;5.60;;;4.40;99.90;;;4.85;100.00;98692.47;5041324;28;20033;-83
2021/12/04 07:56:27;;;;;;;7.50;5.55;;;4.40;99.90;;;4.82;100.00;98706.28;5021551;28;20505;-82
2021/12/04 07:58:56;;;;;;;10.20;5.43;;;4.40;99.90;;;4.70;100.00;98705.25;5021196;28;20034;-82
2021/12/04 08:01:25;;;;;;;10.88;5.55;;;4.40;99.90;;;4.83;100.00;98705.91;5040224;28;20025;-83
2021/12/04 08:03:51;;;;;;;6.63;4.95;;;4.40;99.90;;;4.88;100.00;98700.03;5029773;28;20032;-82
2021/12/04 08:06:17;;;;;;;8.50;5.38;;;4.40;99.90;;;4.89;100.00;98693.34;5032453;28;20036;-83
2021/12/04 08:09:07;;;;;;;9.48;5.90;;;4.40;99.90;;;4.74;100.00;98691.50;5035247;28;20108;-82
2021/12/04 08:11:37;;;;;;;10.00;6.22;;;4.40;99.90;;;4.87;100.00;98686.59;5045930;28;20104;-82
2021/12/04 08:14:06;;;;;;;10.43;6.10;;;4.40;99.90;;;4.77;100.00;98696.31;5044795;28;20095;-81
2021/12/04 08:16:35;;;;;;;8.75;6.10;;;4.40;99.90;;;4.79;100.00;98696.72;5023706;28;20029;-82
2021/12/04 08:19:07;;;;;;;14.82;5.82;;;4.40;99.90;;;4.88;100.00;98700.03;5023731;28;20401;-81
2021/12/04 08:21:35;;;;;;;10.07;5.82;;;4.40;99.90;;;4.96;100.00;98706.53;5049529;28;20037;-80
2021/12/04 08:24:05;;;;;;;9.73;6.32;;;4.40;99.90;;;4.95;100.00;98708.47;5060129;28;20029;-81
2021/12/04 08:26:38;;;;;;;11.45;7.05;;;4.40;99.90;;;4.92;100.00;98700.13;5045532;28;20127;-83
2021/12/04 08:29:06;;;;;;;11.77;7.85;;;4.40;99.90;;;4.90;100.00;98705.22;5067700;28;20044;-82
2021/12/04 08:31:32;;;;;;;11.15;6.88;;;4.40;99.90;;;4.91;100.00;98710.41;5049762;28;20035;-81
2021/12/04 08:33:59;;;;;;;10.32;6.47;;;4.40;99.90;;;4.90;100.00;98702.47;5067694;28;20025;-81
2021/12/04 08:36:26;;;;;;;11.13;7.15;;;4.40;99.90;;;4.90;100.00;98714.31;5046812;28;20086;-83
2021/12/04 08:38:52;;;;;;;8.88;6.95;;;4.40;99.90;;;4.93;100.00;98710.81;5065708;28;20039;-82
2021/12/04 08:41:20;;;;;;;10.35;7.20;;;4.40;99.90;;;4.99;100.00;98694.72;5067588;28;20029;-81
2021/12/04 08:43:46;;;;;;;7.55;5.90;;;4.50;99.90;;;4.94;100.00;98687.53;5065319;28;20029;-82
2021/12/04 08:46:14;;;;;;;7.85;6.20;;;4.50;99.90;;;5.02;100.00;98689.25;5064397;28;20092;-82
2021/12/04 08:48:40;;;;;;;9.00;6.75;;;4.50;99.90;;;5.08;100.00;98689.72;5066128;28;20116;-80
2021/12/04 08:51:09;;;;;;;8.82;6.03;;;4.50;99.90;;;5.14;100.00;98685.50;5047561;28;20025;-81
2021/12/04 08:53:36;;;;;;;9.18;6.32;;;4.50;99.90;;;5.20;100.00;98689.56;5073902;23;20523;-78
2021/12/04 08:56:03;;;;;;;7.72;6.63;;;4.60;99.90;;;5.10;100.00;98687.41;5055696;28;20040;-77
2021/12/04 08:58:35;;;;;;;9.15;6.80;;;4.60;99.90;;;5.17;100.00;98684.78;5053788;28;20033;-77
2021/12/04 09:01:12;;;;;;;12.60;7.63;;;4.60;99.90;;;5.25;100.00;98684.50;5055472;28;20021;-78
2021/12/04 09:03:47;;;;;;;10.18;7.20;;;4.70;99.90;;;5.21;100.00;98683.66;5054327;28;20399;-76
2021/12/04 09:06:18;;;;;;;11.65;6.35;;;4.70;99.90;;;5.21;100.00;98683.66;5035117;28;20030;-77
2021/12/04 09:08:44;;;;;;;11.55;6.60;;;4.70;99.90;;;5.26;100.00;98690.84;5035583;28;20033;-77
2021/12/04 09:11:35;;;;;;;12.15;7.20;;;4.70;99.90;;;5.35;100.00;98696.13;5017600;28;20056;-77
2021/12/04 09:14:05;;;;;;;12.73;6.57;;;4.70;99.90;;;5.20;100.00;98684.03;5034628;28;20057;-77
2021/12/04 09:16:32;;;;;;;8.50;6.32;;;4.70;99.90;;;5.20;100.00;98682.03;5035256;28;20057;-77
2021/12/04 09:18:58;;;;;;;9.55;6.35;;;4.70;99.90;;;5.26;100.00;98682.56;5035805;28;20029;-78
2021/12/04 09:21:27;;;;;;;9.18;6.30;;;4.70;99.90;;;5.23;100.00;98678.53;5042598;28;20087;-76
2021/12/04 09:24:09;;;;;;;10.07;6.82;;;4.80;99.90;;;5.23;100.00;98681.31;5056261;28;20025;-77
2021/12/04 09:29:37;;;;;;;10.35;6.53;;;4.70;99.90;;;5.24;100.00;98687.63;5056201;28;20071;-78
2021/12/04 10:24:55;;;;;;;8.60;6.45;;;5.20;99.90;;;5.91;100.00;98579.88;5053857;28;20372;-78
2021/12/04 10:33:20;;;;;;;6.95;5.03;;;5.60;99.90;;;6.29;100.00;98571.22;5053827;28;20035;-76
2021/12/04 10:35:49;;;;;;;7.15;4.70;;;5.70;99.90;;;6.34;100.00;98568.91;5052950;28;20150;-78
2021/12/04 10:38:26;;;;;;;6.07;4.75;;;5.70;99.90;;;5.98;100.00;98566.09;5036487;28;20518;-77
2021/12/04 10:40:55;;;;;;;7.30;4.50;;;5.60;99.90;;;5.92;100.00;98560.09;5054527;28;20499;-77
2021/12/04 10:43:31;;;;;;;7.70;5.10;;;5.50;99.90;;;5.88;100.00;98552.91;5053405;28;20492;-77
2021/12/04 10:46:02;;;;;;;;;;;5.50;99.90;;;6.01;100.00;98545.94;5036058;28;20111;-78
2021/12/04 10:48:32;;;;;;;7.40;4.60;;;5.50;99.90;;;5.87;100.00;98548.56;5053928;28;19960;-76
2021/12/04 10:53:45;;;;;;;7.28;4.20;;;5.40;99.90;;;5.73;100.00;98540.84;5053064;28;20045;-77
2021/12/04 10:57:04;;;;;;;6.80;4.63;;;5.30;99.90;;;5.69;100.00;98538.03;5054058;28;20523;-77
2021/12/04 11:04:44;;;;;;;4.88;4.18;;;5.30;99.90;;;5.64;100.00;98518.19;5053665;28;20078;-76
2021/12/04 11:18:44;;;;;;;5.50;4.30;;;5.30;99.90;;;5.65;100.00;98490.09;5060323;28;20028;-77
2021/12/04 11:27:10;;;;;;;7.65;5.47;;;5.30;99.90;;;5.91;100.00;98469.84;5063128;28;20549;-79
2021/12/04 11:43:18;;;;;;;5.97;4.30;;;5.60;99.90;;;6.07;100.00;98433.59;5058661;28;20047;-78
2021/12/04 11:46:17;;;;;;;6.40;4.28;;;5.60;99.90;;;6.03;100.00;98433.56;5059071;28;20488;-76
2021/12/04 11:48:44;;;;;;;6.47;3.88;;;5.60;99.90;;;6.02;100.00;98420.88;5057138;28;20028;-77
2021/12/04 11:51:26;;;;;;;5.53;3.92;;;5.60;99.90;;;6.02;100.00;98425.63;5039730;28;20059;-78
2021/12/04 11:53:55;;;;;;;6.75;4.05;;;5.60;99.90;;;6.14;100.00;98428.91;5056114;28;20037;-77
2021/12/04 11:56:29;;;;;;;5.18;3.83;;;5.60;99.90;;;6.09;100.00;98417.38;5055234;28;20028;-79
2021/12/04 11:58:56;;;;;;;6.43;3.70;;;5.60;99.90;;;5.98;100.00;98413.72;5056624;28;20041;-78
2021/12/04 12:01:38;;;;;;;8.82;3.80;;;5.60;99.90;;;6.08;100.00;98397.19;5055988;28;20484;-76
2021/12/04 12:04:11;;;;;;;5.00;3.53;;;5.60;99.90;;;6.17;100.00;98391.31;5055520;28;20079;-76
2021/12/04 12:06:44;;;;;;;4.68;3.58;;;5.60;99.90;;;6.25;100.00;98385.47;5055778;28;20021;-78
2021/12/04 12:09:27;;;;;;;5.78;3.97;;;5.60;99.90;;;6.27;100.00;98382.28;5055903;28;20025;-78
2021/12/04 12:12:05;;;;;;;7.38;3.80;;;5.70;99.90;;;6.30;100.00;98401.72;5055916;28;20028;-78
2021/12/04 12:14:46;;;;;;;5.22;3.70;;;5.70;99.90;;;6.22;100.00;98399.28;5056288;28;20029;-76
2021/12/04 12:17:13;;;;;;;4.60;3.75;;;5.70;99.90;;;6.22;100.00;98396.53;5056803;28;20029;-79
2021/12/04 12:19:51;;;;;;;4.43;3.25;;;5.70;99.90;;;6.24;100.00;98405.22;5037757;28;20033;-76
2021/12/04 12:31:44;;;;;;;5.38;3.95;;;5.60;99.90;;;6.27;100.00;98404.47;5055422;28;20040;-79
2021/12/04 12:33:43;;;;;;;4.63;3.25;;;5.70;99.90;;;6.38;100.00;98393.47;5056249;28;20381;-76
2021/12/04 12:36:19;;;;;;;5.18;3.25;;;5.70;99.90;;;6.36;100.00;98379.97;5054487;28;20025;-77
2021/12/04 12:39:00;;;;;;;5.78;3.50;;;5.70;99.90;;;6.38;100.00;98369.31;5055941;28;20025;-79
2021/12/04 12:41:49;;;;;;;4.63;3.63;;;5.70;99.90;;;6.39;100.00;98373.66;5038936;28;20025;-80
2021/12/04 12:44:34;;;;;;;4.93;3.55;;;5.70;99.90;;;6.45;100.00;98372.16;5039152;28;20098;-77
2021/12/04 12:47:15;;;;;;;5.30;3.45;;;5.80;99.90;;;6.27;100.00;98372.00;5040557;28;20045;-78
2021/12/04 12:49:45;;;;;;;5.07;3.70;;;5.70;99.90;;;6.21;100.00;98356.91;5074502;28;20055;-77
2021/12/04 12:52:29;;;;;;;5.38;3.65;;;5.70;99.90;;;6.25;100.00;98346.66;5071664;28;20037;-77
2021/12/04 12:55:10;;;;;;;5.20;3.50;;;5.70;99.90;;;6.36;100.00;98347.50;5056676;28;20040;-77
2021/12/04 12:57:44;;;;;;;5.55;3.85;;;5.80;99.90;;;6.48;100.00;98332.56;5055133;28;20029;-77
2021/12/04 13:12:13;;;;;;;4.65;3.05;;;6.10;99.90;;;6.71;100.00;98296.22;4993317;28;20037;-78
2021/12/04 13:14:42;;;;;;;5.05;3.25;;;6.10;99.90;;;6.71;100.00;98301.78;5040390;28;20037;-79
2021/12/04 13:17:26;;;;;;;4.50;3.42;;;6.10;99.90;;;6.71;100.00;98297.00;5055652;28;20029;-77
2021/12/04 13:19:58;;;;;;;4.22;3.03;;;6.10;99.90;;;6.61;100.00;98286.69;5055123;28;20151;-75
2021/12/04 13:22:32;;;;;;;6.07;3.90;;;6.00;99.90;;;6.49;100.00;98277.88;5040386;28;20033;-77
2021/12/04 13:25:11;;;;;;;8.02;3.40;;;6.00;99.90;;;6.53;100.00;98278.69;5016777;28;20107;-77
2021/12/04 13:30:15;;;;;;;4.80;3.70;;;6.00;99.90;;;6.66;100.00;98288.28;5035769;28;20063;-76
2021/12/04 13:32:45;;;;;;;5.95;3.88;;;6.10;99.90;;;6.76;100.00;98288.31;5035526;28;20087;-77
2021/12/04 13:35:22;;;;;;;4.97;3.42;;;6.10;99.90;;;6.84;100.00;98286.34;5036026;28;20033;-79
2021/12/04 13:37:58;;;;;;;4.70;3.53;;;6.20;99.90;;;6.86;100.00;98281.22;5036183;28;20021;-78
2021/12/04 13:40:27;;;;;;;5.10;3.80;;;6.20;99.90;;;6.84;100.00;98286.34;5035741;28;20036;-77
2021/12/04 13:42:53;;;;;;;4.32;3.22;;;6.20;99.90;;;6.75;100.00;98302.56;5035809;28;20036;-77
2021/12/04 13:45:22;;;;;;;4.72;3.30;;;6.10;99.90;;;6.58;100.00;98297.75;5035617;28;20342;-77